KLRO

Details ICAO KLRO (LRO)
Name MT PLEASANT RGNL
Region United States
Timezone America/New_York (UTC-4.0)
Plans Departing 17
Arriving 16
Stats Elevation 12 ft / 4 m (AMSL)
Location 32.898000° -79.782900°
Runways 1
Magnetic Variation 8.107° W
Sunrise 2018-10-21 11:29:01 UTC / 2018-10-21 07:29:01 Local
Sunset 2018-10-21 22:40:45 UTC / 2018-10-21 18:40:45 Local
Advertisement - Login to hide

Runways

ID Width Length Bearing (true/mag) Surface Threshold Overrun Markings Lighting
17 75 ft / 23 m 3,806 ft / 1,160 m 167.39° / 175.50° ASPHALT 0 ft / 0 m 0 ft / 0 m APP EDGE THRESHOLD
35 75 ft / 23 m 3,806 ft / 1,160 m 347.39° / 355.50° ASPHALT 0 ft / 0 m 0 ft / 0 m APP EDGE THRESHOLD

Map

Weather


0- 5 10 15 20 25 30 35+ Temperature / °C

Clouds and Precipitation
Forecast for 2018-10-22 06:00 UTC. Updated 24 minutes ago

Ground ~20,000 ft ~40,000 ft Winds

METAR

KLRO 220335Z AUTO 00000KT 10SM CLR 08/07 A3027 RMK AO2

TAF

Not found

Frequencies

Unicom 122.70 MHz CTAF/UNICOM
Approach 135.80 MHz CHARLESTON APP/DEP
Warning: Do not use this data for real-world aviation or navigation. No guarantee of current accuracy is given.